Time;durP1;ratioP1;P1;durP2;ratioP2;P2;SDS_P1;SDS_P2;PMS_P1;PMS_P2;Temp;Humidity;BMP_temperature;BMP_pressure;BME280_temperature;BME280_humidity;BME280_pressure;Samples;Min_cycle;Max_cycle;Signal;HPM_P1;HPM_P2
2022/07/25 00:01:00;;;;;;;5.35;2.30;;;;;;;;;;4751377;30;20049;-51
2022/07/25 00:03:28;;;;;;;4.53;2.15;;;;;;;;;;4751530;30;20110;-53
2022/07/25 00:05:55;;;;;;;3.53;2.10;;;;;;;;;;4751407;30;20500;-51
2022/07/25 00:08:23;;;;;;;5.45;1.65;;;;;;;;;;4764764;30;20052;-48
2022/07/25 00:10:51;;;;;;;6.47;2.00;;;;;;;;;;4751349;30;20115;-50
2022/07/25 00:13:18;;;;;;;5.32;2.63;;;;;;;;;;4751623;30;20406;-48
2022/07/25 00:15:45;;;;;;;2.80;2.05;;;;;;;;;;4751471;30;20398;-53
2022/07/25 00:18:13;;;;;;;2.40;1.60;;;;;;;;;;4750922;30;20048;-51
2022/07/25 00:20:42;;;;;;;2.08;1.38;;;;;;;;;;4751373;30;20125;-54
2022/07/25 00:23:11;;;;;;;3.95;1.90;;;;;;;;;;4751091;30;20081;-50
2022/07/25 00:25:38;;;;;;;4.18;2.00;;;;;;;;;;4751300;30;20044;-53
2022/07/25 00:28:07;;;;;;;4.43;1.58;;;;;;;;;;4751232;30;20416;-49
2022/07/25 00:30:34;;;;;;;4.80;3.20;;;;;;;;;;4751342;30;20040;-51
2022/07/25 00:33:04;;;;;;;4.68;1.67;;;;;;;;;;4750985;30;20071;-53
2022/07/25 00:35:31;;;;;;;2.72;1.63;;;;;;;;;;4751298;30;20048;-48
2022/07/25 00:37:59;;;;;;;3.35;2.38;;;;;;;;;;4764550;30;20424;-47
2022/07/25 00:40:26;;;;;;;4.88;2.10;;;;;;;;;;4751396;30;20056;-49
2022/07/25 00:42:54;;;;;;;3.40;1.80;;;;;;;;;;4750893;30;20590;-54
2022/07/25 00:45:21;;;;;;;3.88;2.00;;;;;;;;;;4751117;30;20051;-48
2022/07/25 00:47:49;;;;;;;5.03;1.90;;;;;;;;;;4751246;30;20052;-49
2022/07/25 00:50:17;;;;;;;4.90;1.60;;;;;;;;;;4751111;30;20052;-45
2022/07/25 00:52:45;;;;;;;5.28;1.52;;;;;;;;;;4750952;30;20048;-47
2022/07/25 00:55:13;;;;;;;6.32;1.55;;;;;;;;;;4751052;30;20048;-46
2022/07/25 00:57:41;;;;;;;2.70;1.60;;;;;;;;;;4751231;30;20071;-50
2022/07/25 01:00:12;;;;;;;3.17;1.92;;;;;;;;;;4750056;30;20050;-47
2022/07/25 01:02:41;;;;;;;2.40;1.30;;;;;;;;;;4750792;30;20059;-49
2022/07/25 01:05:10;;;;;;;4.70;1.60;;;;;;;;;;4750982;30;20138;-52
2022/07/25 01:07:39;;;;;;;5.15;1.30;;;;;;;;;;4750932;30;20078;-50
2022/07/25 01:10:07;;;;;;;3.17;1.75;;;;;;;;;;4750859;30;20051;-46
2022/07/25 01:12:48;;;;;;;4.95;2.13;;;;;;;;;;4749542;30;20454;-49
2022/07/25 01:15:19;;;;;;;9.15;2.45;;;;;;;;;;4750916;30;20052;-48
2022/07/25 01:17:47;;;;;;;2.20;1.67;;;;;;;;;;4751075;30;20052;-47
2022/07/25 01:20:20;;;;;;;3.08;1.83;;;;;;;;;;4749976;30;20102;-49
2022/07/25 01:22:49;;;;;;;3.75;1.40;;;;;;;;;;4749611;30;20040;-47
2022/07/25 01:25:18;;;;;;;6.70;2.10;;;;;;;;;;4751020;30;20048;-48
2022/07/25 01:27:47;;;;;;;6.07;1.88;;;;;;;;;;4750585;30;20056;-50
2022/07/25 01:30:23;;;;;;;6.60;1.60;;;;;;;;;;4753557;30;20052;-48
2022/07/25 01:32:51;;;;;;;5.60;1.63;;;;;;;;;;4753636;30;20045;-50
2022/07/25 01:35:19;;;;;;;5.60;1.92;;;;;;;;;;4754156;30;20051;-48
2022/07/25 01:37:50;;;;;;;5.22;2.50;;;;;;;;;;4753978;30;20371;-47
2022/07/25 01:40:18;;;;;;;3.78;2.00;;;;;;;;;;4753824;30;20079;-48
2022/07/25 01:42:46;;;;;;;5.32;2.40;;;;;;;;;;4753735;30;20040;-49
2022/07/25 01:45:14;;;;;;;3.10;1.70;;;;;;;;;;4753866;30;20083;-52
2022/07/25 01:47:42;;;;;;;6.35;2.78;;;;;;;;;;4752537;30;20115;-53
2022/07/25 01:50:10;;;;;;;5.28;1.65;;;;;;;;;;4753712;30;20291;-47
2022/07/25 01:52:38;;;;;;;4.30;1.50;;;;;;;;;;4766779;30;20056;-50
2022/07/25 01:55:08;;;;;;;7.45;2.33;;;;;;;;;;4753457;30;20052;-52
2022/07/25 01:57:36;;;;;;;3.40;1.60;;;;;;;;;;4753440;30;20052;-50
2022/07/25 02:00:09;;;;;;;3.70;1.73;;;;;;;;;;4753397;30;20052;-51
2022/07/25 02:02:41;;;;;;;2.22;1.45;;;;;;;;;;4753230;30;20053;-49
2022/07/25 02:05:11;;;;;;;2.20;1.55;;;;;;;;;;4752164;30;20084;-55
2022/07/25 02:07:39;;;;;;;4.70;2.95;;;;;;;;;;4753424;30;20552;-51
2022/07/25 02:10:08;;;;;;;2.92;1.85;;;;;;;;;;4766812;30;20060;-50
2022/07/25 02:12:37;;;;;;;3.60;1.52;;;;;;;;;;4753256;30;20123;-55
2022/07/25 02:15:06;;;;;;;2.45;1.45;;;;;;;;;;4753090;30;20131;-51
2022/07/25 02:17:34;;;;;;;2.88;1.48;;;;;;;;;;4766621;30;20138;-48
2022/07/25 02:20:02;;;;;;;2.58;1.70;;;;;;;;;;4752853;30;20044;-51
2022/07/25 02:22:31;;;;;;;6.95;2.03;;;;;;;;;;4752958;30;20044;-51
2022/07/25 02:25:00;;;;;;;4.97;3.03;;;;;;;;;;4752927;30;20570;-53
2022/07/25 02:27:28;;;;;;;3.78;2.55;;;;;;;;;;4753176;30;20044;-52
2022/07/25 02:29:56;;;;;;;2.92;2.08;;;;;;;;;;4752687;30;20076;-51
2022/07/25 02:32:25;;;;;;;5.05;2.50;;;;;;;;;;4752635;30;20117;-53
2022/07/25 02:34:54;;;;;;;4.15;1.50;;;;;;;;;;4752976;30;20416;-52
2022/07/25 02:37:22;;;;;;;3.15;1.80;;;;;;;;;;4752836;30;20098;-52
2022/07/25 02:39:50;;;;;;;5.65;1.90;;;;;;;;;;4752559;30;20106;-49
2022/07/25 02:42:18;;;;;;;2.72;1.70;;;;;;;;;;4752574;30;20050;-54
2022/07/25 02:44:46;;;;;;;2.38;1.50;;;;;;;;;;4751743;30;20101;-50
2022/07/25 02:47:14;;;;;;;2.00;1.50;;;;;;;;;;4752579;30;20047;-52
2022/07/25 02:49:42;;;;;;;4.78;1.67;;;;;;;;;;4752478;30;20048;-48
2022/07/25 02:52:10;;;;;;;4.25;1.95;;;;;;;;;;4752316;30;20060;-46
2022/07/25 02:54:38;;;;;;;5.97;2.22;;;;;;;;;;4752398;30;20044;-51
2022/07/25 02:57:05;;;;;;;3.63;2.10;;;;;;;;;;4751546;30;20404;-53
2022/07/25 02:59:35;;;;;;;3.85;1.77;;;;;;;;;;4765626;30;20505;-52
2022/07/25 03:02:02;;;;;;;4.88;2.10;;;;;;;;;;4752186;30;20086;-52
2022/07/25 03:04:30;;;;;;;2.83;1.52;;;;;;;;;;4752408;30;20578;-55
2022/07/25 03:06:59;;;;;;;2.55;1.80;;;;;;;;;;4752303;30;20501;-52
2022/07/25 03:09:27;;;;;;;6.35;3.03;;;;;;;;;;4751154;30;20052;-53
2022/07/25 03:11:55;;;;;;;4.40;1.70;;;;;;;;;;4751965;30;20109;-52
2022/07/25 03:14:23;;;;;;;5.40;1.58;;;;;;;;;;4752222;30;20417;-47
2022/07/25 03:16:51;;;;;;;6.90;1.90;;;;;;;;;;4752197;30;20509;-46
2022/07/25 03:19:19;;;;;;;6.60;2.30;;;;;;;;;;4752413;30;20067;-53
2022/07/25 03:21:50;;;;;;;4.07;2.10;;;;;;;;;;4752366;30;20044;-52
2022/07/25 03:24:18;;;;;;;3.83;1.63;;;;;;;;;;4752216;30;20051;-54
2022/07/25 03:26:46;;;;;;;5.00;1.77;;;;;;;;;;4751222;30;20048;-51
2022/07/25 03:29:13;;;;;;;3.70;1.98;;;;;;;;;;4751833;30;20048;-51
2022/07/25 03:31:40;;;;;;;3.90;2.10;;;;;;;;;;4752001;30;20830;-54
2022/07/25 03:34:08;;;;;;;2.25;1.80;;;;;;;;;;4751727;30;20048;-53
2022/07/25 03:36:35;;;;;;;6.22;2.65;;;;;;;;;;4751952;30;20047;-53
2022/07/25 03:39:03;;;;;;;4.35;2.58;;;;;;;;;;4750660;30;20060;-53
2022/07/25 03:41:31;;;;;;;3.17;2.58;;;;;;;;;;4751610;30;20094;-54
2022/07/25 03:43:59;;;;;;;5.05;2.85;;;;;;;;;;4751533;30;20040;-53
2022/07/25 03:46:26;;;;;;;3.55;2.88;;;;;;;;;;4751670;30;20072;-53
2022/07/25 03:48:54;;;;;;;3.45;2.45;;;;;;;;;;4751623;30;20521;-53
2022/07/25 03:51:22;;;;;;;5.13;3.40;;;;;;;;;;4750997;30;20497;-54
2022/07/25 03:54:01;;;;;;;4.60;2.80;;;;;;;;;;4751529;30;20056;-51
2022/07/25 03:56:37;;;;;;;4.60;3.38;;;;;;;;;;4751796;30;20047;-53
2022/07/25 03:59:11;;;;;;;5.80;2.70;;;;;;;;;;4751787;30;20079;-52
2022/07/25 04:01:42;;;;;;;4.82;3.50;;;;;;;;;;4751427;30;20051;-50
2022/07/25 04:04:10;;;;;;;4.43;2.80;;;;;;;;;;4750998;30;20540;-50
2022/07/25 04:06:38;;;;;;;10.63;6.15;;;;;;;;;;4751645;30;20052;-54
2022/07/25 04:09:07;;;;;;;14.45;9.50;;;;;;;;;;4751143;30;20055;-52
2022/07/25 04:11:37;;;;;;;5.22;3.50;;;;;;;;;;4751492;30;20055;-52
2022/07/25 04:14:05;;;;;;;3.92;3.00;;;;;;;;;;4749758;30;20135;-54
2022/07/25 04:16:33;;;;;;;4.60;3.22;;;;;;;;;;4751396;30;20052;-49
2022/07/25 04:19:04;;;;;;;4.20;3.20;;;;;;;;;;4751163;30;20098;-50
2022/07/25 04:21:32;;;;;;;6.82;2.95;;;;;;;;;;4751375;30;20086;-52
2022/07/25 04:23:59;;;;;;;3.53;2.63;;;;;;;;;;4751077;30;20040;-52
2022/07/25 04:26:27;;;;;;;3.22;2.65;;;;;;;;;;4751242;30;20071;-52
2022/07/25 04:28:56;;;;;;;32.55;21.58;;;;;;;;;;4751009;30;20056;-52
2022/07/25 04:31:24;;;;;;;41.53;22.92;;;;;;;;;;4751154;30;20056;-52
2022/07/25 04:33:52;;;;;;;12.63;7.43;;;;;;;;;;4750892;30;20049;-49
2022/07/25 04:36:19;;;;;;;4.10;3.05;;;;;;;;;;4751373;30;20048;-55
2022/07/25 04:38:47;;;;;;;5.35;2.70;;;;;;;;;;4750951;30;20086;-49
2022/07/25 04:41:14;;;;;;;6.00;2.72;;;;;;;;;;4751178;30;20091;-50
2022/07/25 04:43:42;;;;;;;4.22;2.90;;;;;;;;;;4750737;30;20464;-53
2022/07/25 04:46:19;;;;;;;6.78;3.28;;;;;;;;;;4750944;30;20044;-49
2022/07/25 04:48:46;;;;;;;18.63;10.75;;;;;;;;;;4751230;30;20118;-54
2022/07/25 04:51:14;;;;;;;5.43;3.58;;;;;;;;;;4751148;30;20044;-51
2022/07/25 04:53:41;;;;;;;4.13;3.15;;;;;;;;;;4750743;30;20057;-49
2022/07/25 04:56:09;;;;;;;4.38;3.00;;;;;;;;;;4750442;30;20044;-47
2022/07/25 04:58:36;;;;;;;4.65;3.40;;;;;;;;;;4750737;30;20127;-48
2022/07/25 05:01:04;;;;;;;4.25;2.83;;;;;;;;;;4750685;30;20071;-50
2022/07/25 05:03:31;;;;;;;5.78;2.95;;;;;;;;;;4751867;30;20048;-50
2022/07/25 05:05:59;;;;;;;3.38;2.58;;;;;;;;;;4753845;30;20060;-53
2022/07/25 05:08:28;;;;;;;185.27;107.82;;;;;;;;;;4754094;30;20574;-46
2022/07/25 05:10:55;;;;;;;10.35;6.32;;;;;;;;;;4753375;30;20048;-47
2022/07/25 05:13:22;;;;;;;4.70;2.90;;;;;;;;;;4753839;30;20048;-53
2022/07/25 05:15:50;;;;;;;3.50;2.58;;;;;;;;;;4754128;30;20067;-51
2022/07/25 05:18:17;;;;;;;5.30;2.47;;;;;;;;;;4753554;30;20060;-49
2022/07/25 05:20:45;;;;;;;3.85;2.38;;;;;;;;;;4753989;30;20048;-51
2022/07/25 05:23:12;;;;;;;3.65;2.53;;;;;;;;;;4753718;30;20048;-46
2022/07/25 05:25:39;;;;;;;4.40;2.55;;;;;;;;;;4753691;30;20055;-52
2022/07/25 05:28:06;;;;;;;3.85;2.60;;;;;;;;;;4753782;30;20094;-53
2022/07/25 05:30:35;;;;;;;4.05;2.70;;;;;;;;;;4753469;30;20052;-48
2022/07/25 05:33:06;;;;;;;3.72;2.63;;;;;;;;;;4753645;30;20523;-48
2022/07/25 05:35:33;;;;;;;5.60;2.53;;;;;;;;;;4753714;30;20044;-50
2022/07/25 05:38:01;;;;;;;53.45;46.50;;;;;;;;;;4753263;30;20668;-48
2022/07/25 05:40:28;;;;;;;5.07;2.97;;;;;;;;;;4753629;30;20056;-50
2022/07/25 05:42:55;;;;;;;4.25;2.22;;;;;;;;;;4753583;30;20076;-52
2022/07/25 05:45:30;;;;;;;3.35;2.40;;;;;;;;;;4767370;30;20055;-47
2022/07/25 05:47:58;;;;;;;5.45;2.25;;;;;;;;;;4753621;30;20129;-48
2022/07/25 05:50:26;;;;;;;5.05;2.53;;;;;;;;;;4753315;30;20071;-49
2022/07/25 05:52:53;;;;;;;3.70;3.00;;;;;;;;;;4753239;30;20044;-48
2022/07/25 05:55:21;;;;;;;3.35;2.50;;;;;;;;;;4753723;30;20092;-48
2022/07/25 05:57:48;;;;;;;3.70;2.50;;;;;;;;;;4753401;30;20082;-48
2022/07/25 06:00:16;;;;;;;16.42;10.98;;;;;;;;;;4753345;30;20586;-50
2022/07/25 06:02:43;;;;;;;4.90;2.95;;;;;;;;;;4753364;30;20052;-46
2022/07/25 06:05:11;;;;;;;4.65;3.33;;;;;;;;;;4753210;30;20572;-45
2022/07/25 06:07:38;;;;;;;3.22;2.20;;;;;;;;;;4753211;30;20128;-54
2022/07/25 06:10:06;;;;;;;6.20;3.00;;;;;;;;;;4752548;30;20489;-50
2022/07/25 06:12:33;;;;;;;4.00;2.50;;;;;;;;;;4753281;30;20048;-48
2022/07/25 06:15:03;;;;;;;4.50;2.80;;;;;;;;;;4752343;30;20064;-50
2022/07/25 06:17:31;;;;;;;6.13;3.00;;;;;;;;;;4753115;30;20125;-47
2022/07/25 06:19:59;;;;;;;3.33;2.60;;;;;;;;;;4752996;30;20052;-50
2022/07/25 06:22:26;;;;;;;4.63;2.85;;;;;;;;;;4753079;30;20047;-47
2022/07/25 06:24:53;;;;;;;4.90;3.05;;;;;;;;;;4752695;30;20048;-49
2022/07/25 06:27:20;;;;;;;7.35;3.47;;;;;;;;;;4753295;30;20052;-51
2022/07/25 06:29:54;;;;;;;5.03;3.20;;;;;;;;;;4752524;30;20405;-48
2022/07/25 06:32:22;;;;;;;4.10;2.70;;;;;;;;;;4753003;30;20048;-46
2022/07/25 06:34:49;;;;;;;4.47;2.40;;;;;;;;;;4753104;30;20060;-50
2022/07/25 06:37:18;;;;;;;6.00;2.60;;;;;;;;;;4752798;30;20059;-49
2022/07/25 06:39:45;;;;;;;3.50;2.30;;;;;;;;;;4752299;30;20044;-46
2022/07/25 06:42:12;;;;;;;4.85;2.95;;;;;;;;;;4752891;30;20199;-52
2022/07/25 06:44:40;;;;;;;3.33;2.50;;;;;;;;;;4751116;30;20055;-49
2022/07/25 06:47:11;;;;;;;4.28;2.35;;;;;;;;;;4752698;30;20048;-54
2022/07/25 06:49:40;;;;;;;3.45;2.30;;;;;;;;;;4766318;30;20056;-48
2022/07/25 06:52:07;;;;;;;3.30;2.30;;;;;;;;;;4752384;30;20055;-49
2022/07/25 06:54:35;;;;;;;4.53;2.20;;;;;;;;;;4752596;30;20052;-50
2022/07/25 06:57:02;;;;;;;14.25;8.18;;;;;;;;;;4751761;30;20497;-46
2022/07/25 06:59:30;;;;;;;4.20;2.67;;;;;;;;;;4752347;30;20404;-48
2022/07/25 07:01:57;;;;;;;2.67;1.88;;;;;;;;;;4752234;30;20536;-52
2022/07/25 07:04:24;;;;;;;3.38;2.05;;;;;;;;;;4752405;30;20040;-48
2022/07/25 07:06:52;;;;;;;2.80;2.20;;;;;;;;;;4752458;30;20037;-48
2022/07/25 07:09:19;;;;;;;4.53;2.33;;;;;;;;;;4751825;30;20040;-49
2022/07/25 07:11:46;;;;;;;3.45;2.22;;;;;;;;;;4751786;30;20040;-52
2022/07/25 07:14:14;;;;;;;2.55;1.95;;;;;;;;;;4750489;30;20551;-49
2022/07/25 07:16:41;;;;;;;4.32;2.05;;;;;;;;;;4751987;30;20052;-46
2022/07/25 07:19:09;;;;;;;3.17;1.92;;;;;;;;;;4751744;30;20052;-48
2022/07/25 07:21:37;;;;;;;5.10;2.10;;;;;;;;;;4750598;30;20047;-49
2022/07/25 07:24:06;;;;;;;50.40;36.53;;;;;;;;;;4751839;30;20098;-47
2022/07/25 07:26:51;;;;;;;7.03;3.60;;;;;;;;;;4752170;30;20048;-49
2022/07/25 07:29:18;;;;;;;2.65;1.80;;;;;;;;;;4752056;30;20052;-51
2022/07/25 07:31:46;;;;;;;3.13;2.10;;;;;;;;;;4751613;30;20041;-48
2022/07/25 07:34:13;;;;;;;3.88;2.30;;;;;;;;;;4751743;30;20062;-50
2022/07/25 07:36:42;;;;;;;4.28;2.05;;;;;;;;;;4751178;30;20044;-50
2022/07/25 07:39:10;;;;;;;4.38;3.10;;;;;;;;;;4751460;30;20057;-47
2022/07/25 07:41:37;;;;;;;4.80;2.10;;;;;;;;;;4751124;29;20060;-48
2022/07/25 07:44:04;;;;;;;4.18;2.00;;;;;;;;;;4751631;30;20051;-48
2022/07/25 07:46:32;;;;;;;3.50;2.13;;;;;;;;;;4751598;30;20075;-50
2022/07/25 07:48:59;;;;;;;3.17;2.10;;;;;;;;;;4751606;30;20056;-47
2022/07/25 07:51:27;;;;;;;5.07;2.40;;;;;;;;;;4751375;30;20052;-52
2022/07/25 07:56:40;;;;;;;4.13;2.25;;;;;;;;;;4751262;30;20044;-48
2022/07/25 07:59:08;;;;;;;3.70;2.22;;;;;;;;;;4751338;30;20048;-48
2022/07/25 08:01:36;;;;;;;4.43;2.85;;;;;;;;;;4751274;30;20048;-48
2022/07/25 08:04:03;;;;;;;3.72;2.80;;;;;;;;;;4751412;30;20055;-48
2022/07/25 08:06:31;;;;;;;3.35;2.00;;;;;;;;;;4751527;30;20047;-54
2022/07/25 08:08:58;;;;;;;4.97;1.95;;;;;;;;;;4751367;30;20127;-48
2022/07/25 08:11:25;;;;;;;2.90;2.25;;;;;;;;;;4751242;30;20477;-47
2022/07/25 08:13:53;;;;;;;5.57;2.22;;;;;;;;;;4751093;30;20051;-46
2022/07/25 08:16:20;;;;;;;6.22;2.30;;;;;;;;;;4751277;30;20408;-50
2022/07/25 08:18:47;;;;;;;5.75;2.30;;;;;;;;;;4751206;30;20517;-46
2022/07/25 08:21:15;;;;;;;2.33;1.52;;;;;;;;;;4751093;30;20052;-47
2022/07/25 08:23:45;;;;;;;2.72;1.48;;;;;;;;;;4751090;30;20122;-54
2022/07/25 08:26:15;;;;;;;2.03;1.50;;;;;;;;;;4751210;30;20086;-47
2022/07/25 08:28:43;;;;;;;3.97;1.60;;;;;;;;;;4750886;30;20044;-47
2022/07/25 08:31:14;;;;;;;4.05;1.50;;;;;;;;;;4750968;30;20067;-51
2022/07/25 08:33:41;;;;;;;2.20;1.48;;;;;;;;;;4750431;30;20055;-54
2022/07/25 08:36:10;;;;;;;2.05;1.40;;;;;;;;;;4750450;30;20424;-45
2022/07/25 08:38:37;;;;;;;2.67;1.63;;;;;;;;;;4752943;30;20052;-50
2022/07/25 08:41:05;;;;;;;2.72;1.60;;;;;;;;;;4754412;30;20055;-46
2022/07/25 08:43:34;;;;;;;2.08;1.23;;;;;;;;;;4754710;30;20382;-54
2022/07/25 08:46:04;;;;;;;3.28;1.67;;;;;;;;;;4754264;30;20488;-48
2022/07/25 08:48:32;;;;;;;3.33;1.60;;;;;;;;;;4754822;30;20472;-51
2022/07/25 08:51:01;;;;;;;2.65;1.77;;;;;;;;;;4754552;30;20056;-46
2022/07/25 08:53:29;;;;;;;2.40;1.50;;;;;;;;;;4754037;30;20046;-49
2022/07/25 08:56:00;;;;;;;2.75;1.30;;;;;;;;;;4754364;30;20051;-49
2022/07/25 08:58:36;;;;;;;2.35;1.30;;;;;;;;;;4754509;30;20078;-46
2022/07/25 09:01:03;;;;;;;2.40;1.30;;;;;;;;;;4754134;30;20052;-46
2022/07/25 09:03:31;;;;;;;2.80;1.08;;;;;;;;;;4754451;30;20040;-46
2022/07/25 09:05:59;;;;;;;3.92;1.08;;;;;;;;;;4754110;30;20582;-47
2022/07/25 09:08:26;;;;;;;2.78;1.10;;;;;;;;;;4754190;30;20078;-46
2022/07/25 09:10:53;;;;;;;2.38;1.30;;;;;;;;;;4754437;30;20048;-50
2022/07/25 09:13:22;;;;;;;2.03;1.08;;;;;;;;;;4753667;30;20509;-50
2022/07/25 09:15:52;;;;;;;3.38;1.45;;;;;;;;;;4754304;30;20513;-48
2022/07/25 09:18:26;;;;;;;1.55;1.20;;;;;;;;;;4754214;30;20528;-51
2022/07/25 09:20:57;;;;;;;1.90;1.20;;;;;;;;;;4753740;30;20480;-52
2022/07/25 09:23:31;;;;;;;2.70;1.50;;;;;;;;;;4753999;30;20105;-47
2022/07/25 09:26:06;;;;;;;2.28;1.13;;;;;;;;;;4753874;30;20045;-45
2022/07/25 09:28:59;;;;;;;1.92;1.10;;;;;;;;;;4754026;30;20425;-53
2022/07/25 09:31:31;;;;;;;2.78;1.33;;;;;;;;;;4753068;30;20421;-51
2022/07/25 09:34:02;;;;;;;3.22;1.60;;;;;;;;;;4753336;30;20100;-50
2022/07/25 09:36:30;;;;;;;2.88;1.30;;;;;;;;;;4754015;30;20093;-48
2022/07/25 09:39:00;;;;;;;4.03;1.30;;;;;;;;;;4753446;30;20087;-45
2022/07/25 09:41:35;;;;;;;1.88;1.17;;;;;;;;;;4753813;30;20044;-51
2022/07/25 09:44:13;;;;;;;2.38;1.67;;;;;;;;;;4753584;30;20109;-48
2022/07/25 09:46:40;;;;;;;3.10;1.60;;;;;;;;;;4753502;30;20055;-50
2022/07/25 09:49:08;;;;;;;1.88;1.33;;;;;;;;;;4752915;30;20094;-49
2022/07/25 09:51:36;;;;;;;7.43;1.50;;;;;;;;;;4753410;30;20055;-48
2022/07/25 09:54:03;;;;;;;3.58;1.63;;;;;;;;;;4752931;30;20070;-53
2022/07/25 09:56:34;;;;;;;2.38;1.35;;;;;;;;;;4753153;30;20110;-51
2022/07/25 09:59:02;;;;;;;2.40;1.48;;;;;;;;;;4752787;30;20048;-49
2022/07/25 10:02:05;;;;;;;6.57;1.85;;;;;;;;;;4753304;30;20119;-48
2022/07/25 10:05:10;;;;;;;3.20;1.80;;;;;;;;;;4753136;30;20129;-47
2022/07/25 10:07:39;;;;;;;2.10;1.70;;;;;;;;;;4753369;30;20528;-51
2022/07/25 10:10:07;;;;;;;4.65;1.75;;;;;;;;;;4753116;30;20139;-48
2022/07/25 10:12:37;;;;;;;3.88;1.80;;;;;;;;;;4753025;30;20109;-53
2022/07/25 10:15:11;;;;;;;3.60;1.73;;;;;;;;;;4752598;30;20527;-55
2022/07/25 10:17:40;;;;;;;3.83;1.90;;;;;;;;;;4752975;30;20044;-50
2022/07/25 10:20:09;;;;;;;2.75;1.60;;;;;;;;;;4753013;30;20501;-55
2022/07/25 10:22:41;;;;;;;3.13;1.48;;;;;;;;;;4752895;30;20048;-50
2022/07/25 10:25:24;;;;;;;2.67;1.50;;;;;;;;;;4752914;30;20059;-48
2022/07/25 10:28:01;;;;;;;3.65;2.22;;;;;;;;;;4753051;30;20044;-49
2022/07/25 10:30:37;;;;;;;3.72;1.50;;;;;;;;;;4753082;30;20080;-50
2022/07/25 10:33:25;;;;;;;2.90;1.85;;;;;;;;;;4752747;30;20076;-47
2022/07/25 10:36:05;;;;;;;4.28;1.50;;;;;;;;;;4752718;30;20046;-49
2022/07/25 10:38:33;;;;;;;2.47;1.52;;;;;;;;;;4752654;30;20044;-50
2022/07/25 10:41:02;;;;;;;2.78;1.60;;;;;;;;;;4752755;30;20508;-50
2022/07/25 10:43:36;;;;;;;69.32;43.75;;;;;;;;;;4752723;30;20440;-45
2022/07/25 10:46:16;;;;;;;6.18;2.38;;;;;;;;;;4752409;30;20079;-51
2022/07/25 10:48:44;;;;;;;3.72;1.75;;;;;;;;;;4752221;30;20053;-51
2022/07/25 10:51:12;;;;;;;2.53;1.60;;;;;;;;;;4752532;30;20058;-49
2022/07/25 10:53:44;;;;;;;3.42;2.03;;;;;;;;;;4751888;30;20051;-48
2022/07/25 10:56:15;;;;;;;3.20;1.57;;;;;;;;;;4752315;30;20077;-52
2022/07/25 10:59:03;;;;;;;2.08;1.55;;;;;;;;;;4752338;30;20189;-51
2022/07/25 11:01:36;;;;;;;2.13;1.40;;;;;;;;;;4752051;30;20050;-50
2022/07/25 11:04:14;;;;;;;2.78;1.80;;;;;;;;;;4752080;30;20060;-52
2022/07/25 11:06:42;;;;;;;2.67;1.50;;;;;;;;;;4752131;30;20411;-50
2022/07/25 11:09:27;;;;;;;2.05;1.55;;;;;;;;;;4742433;30;20056;-46
2022/07/25 11:11:57;;;;;;;3.28;1.63;;;;;;;;;;4734326;30;20048;-49
2022/07/25 11:14:32;;;;;;;2.35;1.55;;;;;;;;;;4734181;30;20053;-50
2022/07/25 11:17:13;;;;;;;3.92;1.48;;;;;;;;;;4734211;30;20049;-46
2022/07/25 11:20:00;;;;;;;4.32;1.45;;;;;;;;;;4734079;30;20502;-45
2022/07/25 11:22:29;;;;;;;72.80;44.03;;;;;;;;;;4734355;30;20056;-48
2022/07/25 11:24:58;;;;;;;9.55;5.65;;;;;;;;;;4734180;30;20048;-49
2022/07/25 11:27:28;;;;;;;2.42;1.73;;;;;;;;;;4734288;30;20044;-49
2022/07/25 11:30:26;;;;;;;2.13;1.40;;;;;;;;;;4734179;30;20398;-47
2022/07/25 11:32:55;;;;;;;2.25;1.48;;;;;;;;;;4737108;30;20518;-47
2022/07/25 11:35:26;;;;;;;2.05;1.42;;;;;;;;;;4734278;30;20052;-48
2022/07/25 11:37:54;;;;;;;1.95;1.35;;;;;;;;;;4734278;30;20106;-48
2022/07/25 11:40:22;;;;;;;2.05;1.50;;;;;;;;;;4734060;30;20049;-49
2022/07/25 11:43:00;;;;;;;3.28;1.50;;;;;;;;;;4734311;30;20409;-52
2022/07/25 11:45:35;;;;;;;1.80;1.40;;;;;;;;;;4733733;30;20063;-50
2022/07/25 11:48:03;;;;;;;4.15;1.52;;;;;;;;;;4733942;30;20053;-48
2022/07/25 11:50:33;;;;;;;2.90;1.50;;;;;;;;;;4733404;30;20561;-49
2022/07/25 11:53:04;;;;;;;2.88;1.60;;;;;;;;;;4733461;30;20044;-52
2022/07/25 11:55:36;;;;;;;4.32;1.50;;;;;;;;;;4740784;30;20037;-51
2022/07/25 11:58:04;;;;;;;2.27;1.63;;;;;;;;;;4751138;30;20083;-49
2022/07/25 12:00:46;;;;;;;2.42;1.33;;;;;;;;;;4751388;30;20386;-50
2022/07/25 12:03:16;;;;;;;2.10;1.40;;;;;;;;;;4751598;30;20052;-52
2022/07/25 12:05:46;;;;;;;;;;;;;;;;;;4751341;30;20048;-51
2022/07/25 12:08:19;;;;;;;3.10;1.50;;;;;;;;;;4751440;30;20211;-51
2022/07/25 12:10:49;;;;;;;2.25;1.45;;;;;;;;;;4751365;30;20069;-49
2022/07/25 12:13:26;;;;;;;3.40;1.55;;;;;;;;;;4749736;30;20512;-56
2022/07/25 12:15:58;;;;;;;2.67;1.60;;;;;;;;;;4749548;30;20142;-47
2022/07/25 12:18:26;;;;;;;20.03;14.30;;;;;;;;;;4749829;30;20101;-47
2022/07/25 12:20:54;;;;;;;3.28;2.08;;;;;;;;;;4748584;30;20054;-47
2022/07/25 12:23:21;;;;;;;2.42;1.30;;;;;;;;;;4750166;30;20127;-50
2022/07/25 12:25:49;;;;;;;2.38;1.33;;;;;;;;;;4749645;30;20040;-48
2022/07/25 12:28:16;;;;;;;3.40;1.75;;;;;;;;;;4749681;30;20052;-46
2022/07/25 12:30:45;;;;;;;4.07;1.45;;;;;;;;;;4749603;30;20400;-50
2022/07/25 12:33:13;;;;;;;3.70;1.73;;;;;;;;;;4749509;30;20044;-47
2022/07/25 12:35:42;;;;;;;1.90;1.40;;;;;;;;;;4749846;30;20461;-51
2022/07/25 12:38:10;;;;;;;2.78;1.38;;;;;;;;;;4749486;30;20130;-48
2022/07/25 12:40:37;;;;;;;4.28;1.50;;;;;;;;;;4749622;30;20064;-48
2022/07/25 12:43:08;;;;;;;3.67;1.27;;;;;;;;;;4748233;30;20052;-47
2022/07/25 12:45:35;;;;;;;1.98;1.17;;;;;;;;;;4749269;30;20045;-52
2022/07/25 12:48:03;;;;;;;2.55;1.42;;;;;;;;;;4749783;30;20040;-51
2022/07/25 12:50:31;;;;;;;2.00;1.30;;;;;;;;;;4749626;30;20076;-47
2022/07/25 12:52:58;;;;;;;74.57;23.63;;;;;;;;;;4749460;30;20052;-50
2022/07/25 12:55:26;;;;;;;37.53;11.73;;;;;;;;;;4749599;30;20075;-48
2022/07/25 12:57:54;;;;;;;5.88;2.13;;;;;;;;;;4749554;30;20044;-48
2022/07/25 13:00:22;;;;;;;2.70;1.42;;;;;;;;;;4749632;30;20059;-50
2022/07/25 13:02:51;;;;;;;2.50;1.73;;;;;;;;;;4749409;30;20049;-48
2022/07/25 13:05:19;;;;;;;2.78;1.77;;;;;;;;;;4749755;30;20048;-50
2022/07/25 13:07:48;;;;;;;2.95;1.10;;;;;;;;;;4749257;30;20075;-49
2022/07/25 13:10:17;;;;;;;1.92;1.23;;;;;;;;;;4749185;30;20114;-49
2022/07/25 13:12:46;;;;;;;2.85;1.20;;;;;;;;;;4763084;30;20242;-47
2022/07/25 13:15:14;;;;;;;4.38;1.80;;;;;;;;;;4748192;30;20064;-49
2022/07/25 13:17:42;;;;;;;2.22;1.35;;;;;;;;;;4749416;30;20131;-51
2022/07/25 13:20:11;;;;;;;1.23;1.10;;;;;;;;;;4749360;30;20155;-48
2022/07/25 13:22:38;;;;;;;3.08;1.20;;;;;;;;;;4749471;30;20468;-56
2022/07/25 13:25:07;;;;;;;1.75;1.30;;;;;;;;;;4751519;30;20048;-47
2022/07/25 13:27:37;;;;;;;2.13;1.20;;;;;;;;;;4752721;30;20043;-51
2022/07/25 13:30:06;;;;;;;2.20;1.17;;;;;;;;;;4752577;30;20048;-48
2022/07/25 13:32:34;;;;;;;1.88;1.20;;;;;;;;;;4752491;30;20051;-52
2022/07/25 13:35:02;;;;;;;1.60;1.25;;;;;;;;;;4752570;30;20119;-48
2022/07/25 13:37:32;;;;;;;2.67;1.58;;;;;;;;;;4752254;30;20040;-50
2022/07/25 13:39:59;;;;;;;2.47;1.35;;;;;;;;;;4752278;30;20079;-50
2022/07/25 13:42:26;;;;;;;17.35;11.68;;;;;;;;;;4752175;30;20128;-47
2022/07/25 13:44:53;;;;;;;3.58;2.22;;;;;;;;;;4752567;30;20075;-53
2022/07/25 13:47:21;;;;;;;3.33;1.40;;;;;;;;;;4752437;30;20048;-49
2022/07/25 13:49:56;;;;;;;3.97;1.70;;;;;;;;;;4752203;30;20054;-51
2022/07/25 13:52:23;;;;;;;3.53;1.35;;;;;;;;;;4752356;30;20870;-47
2022/07/25 13:54:50;;;;;;;4.85;1.92;;;;;;;;;;4752409;30;20060;-49
2022/07/25 13:57:18;;;;;;;2.65;1.63;;;;;;;;;;4752177;30;20061;-47
2022/07/25 13:59:45;;;;;;;2.83;1.42;;;;;;;;;;4751954;30;20115;-52
2022/07/25 14:02:13;;;;;;;2.15;1.70;;;;;;;;;;4751834;30;20072;-48
2022/07/25 14:04:40;;;;;;;2.72;1.60;;;;;;;;;;4752026;30;20052;-48
2022/07/25 14:07:07;;;;;;;7.57;1.67;;;;;;;;;;4751932;30;20044;-49
2022/07/25 14:09:37;;;;;;;5.15;1.60;;;;;;;;;;4751888;30;20439;-49
2022/07/25 14:12:05;;;;;;;2.33;1.67;;;;;;;;;;4751775;30;20123;-51
2022/07/25 14:14:32;;;;;;;2.13;1.50;;;;;;;;;;4751722;30;20127;-49
2022/07/25 14:16:59;;;;;;;3.55;1.70;;;;;;;;;;4751807;30;20049;-56
2022/07/25 14:19:26;;;;;;;19.20;10.98;;;;;;;;;;4751598;30;20070;-49
2022/07/25 14:21:54;;;;;;;3.58;2.10;;;;;;;;;;4751902;30;20127;-54
2022/07/25 14:24:21;;;;;;;2.55;1.73;;;;;;;;;;4751915;30;20050;-49
2022/07/25 14:26:50;;;;;;;3.63;1.80;;;;;;;;;;4751568;30;20055;-48
2022/07/25 14:29:17;;;;;;;5.32;1.70;;;;;;;;;;4751608;30;20456;-49
2022/07/25 14:31:44;;;;;;;2.20;1.60;;;;;;;;;;4751517;30;20059;-48
2022/07/25 14:34:14;;;;;;;2.38;1.35;;;;;;;;;;4750839;30;20052;-46
2022/07/25 14:36:43;;;;;;;3.03;1.45;;;;;;;;;;4750835;30;20053;-52
2022/07/25 14:39:10;;;;;;;4.75;1.40;;;;;;;;;;4751431;30;20048;-47
2022/07/25 14:41:38;;;;;;;4.05;1.40;;;;;;;;;;4751150;30;20059;-47
2022/07/25 14:44:05;;;;;;;4.80;1.45;;;;;;;;;;4749950;30;20052;-46
2022/07/25 14:46:33;;;;;;;39.17;27.40;;;;;;;;;;4751341;30;20505;-45
2022/07/25 14:49:01;;;;;;;9.45;6.30;;;;;;;;;;4751280;30;20095;-50
2022/07/25 14:51:29;;;;;;;4.90;1.85;;;;;;;;;;4750947;30;20051;-49
2022/07/25 14:53:56;;;;;;;2.58;1.50;;;;;;;;;;4751053;30;20048;-52
2022/07/25 14:56:23;;;;;;;3.20;1.35;;;;;;;;;;4751198;30;20044;-57
2022/07/25 14:58:51;;;;;;;2.08;1.48;;;;;;;;;;4750851;30;20058;-49